createdAt,value
2022-10-05T00:01:30.214Z,36
2022-10-05T00:04:01.362Z,47
2022-10-05T00:06:32.004Z,45
2022-10-05T00:09:02.912Z,40
2022-10-05T00:11:32.210Z,32
2022-10-05T00:14:03.146Z,32
2022-10-05T00:16:35.120Z,32
2022-10-05T00:19:06.172Z,28
2022-10-05T00:21:37.077Z,26
2022-10-05T00:24:08.529Z,22
2022-10-05T00:26:39.527Z,26
2022-10-05T00:29:10.852Z,24
2022-10-05T00:31:44.573Z,28
2022-10-05T00:34:15.776Z,32
2022-10-05T00:36:49.547Z,28
2022-10-05T00:39:20.364Z,24
2022-10-05T00:41:51.082Z,28
2022-10-05T00:44:22.546Z,35
2022-10-05T00:46:54.580Z,32
2022-10-05T00:49:25.857Z,29
2022-10-05T00:51:57.036Z,23
2022-10-05T00:54:28.585Z,25
2022-10-05T00:56:59.618Z,27
2022-10-05T00:59:30.453Z,24
2022-10-05T01:02:01.930Z,24
2022-10-05T01:04:33.322Z,20
2022-10-05T01:07:05.399Z,18
2022-10-05T01:09:38.470Z,24
2022-10-05T01:12:11.156Z,20
2022-10-05T01:14:42.979Z,22
2022-10-05T01:17:14.152Z,24
2022-10-05T01:19:45.424Z,24
2022-10-05T01:22:16.438Z,21
2022-10-05T01:24:47.604Z,24
2022-10-05T01:27:18.797Z,26
2022-10-05T01:29:51.435Z,24
2022-10-05T01:32:22.802Z,20
2022-10-05T01:34:56.075Z,20
2022-10-05T01:37:27.137Z,24
2022-10-05T01:39:58.090Z,16
2022-10-05T01:42:29.535Z,24
2022-10-05T01:45:05.889Z,22
2022-10-05T01:47:36.664Z,20
2022-10-05T01:50:08.237Z,24
2022-10-05T01:52:39.369Z,25
2022-10-05T01:55:09.900Z,22
2022-10-05T01:57:41.789Z,24
2022-10-05T02:00:13.427Z,21
2022-10-05T02:02:44.299Z,23
2022-10-05T02:05:15.274Z,23
2022-10-05T02:07:46.512Z,17
2022-10-05T02:10:17.500Z,18
2022-10-05T02:12:49.086Z,24
2022-10-05T02:15:19.026Z,19
2022-10-05T02:17:50.398Z,20
2022-10-05T02:20:22.297Z,20
2022-10-05T02:22:53.513Z,20
2022-10-05T02:25:24.497Z,23
2022-10-05T02:27:56.325Z,24
2022-10-05T02:30:26.988Z,20
2022-10-05T02:32:58.052Z,20
2022-10-05T02:35:28.820Z,20
2022-10-05T02:37:59.498Z,16
2022-10-05T02:40:29.560Z,17
2022-10-05T02:43:00.783Z,22
2022-10-05T02:45:32.389Z,24
2022-10-05T02:48:01.825Z,17
2022-10-05T02:50:33.938Z,17
2022-10-05T02:53:05.342Z,20
2022-10-05T02:55:36.054Z,21
2022-10-05T02:58:07.320Z,20
2022-10-05T03:00:38.943Z,20
2022-10-05T03:03:10.066Z,17
2022-10-05T03:05:40.964Z,20
2022-10-05T03:08:11.898Z,16
2022-10-05T03:10:42.950Z,16
2022-10-05T03:13:13.969Z,20
2022-10-05T03:15:45.009Z,18
2022-10-05T03:18:14.504Z,12
2022-10-05T03:20:44.287Z,14
2022-10-05T03:23:14.773Z,20
2022-10-05T03:25:45.579Z,16
2022-10-05T03:28:17.721Z,15
2022-10-05T03:30:49.240Z,18
2022-10-05T03:33:20.860Z,19
2022-10-05T03:35:52.282Z,14
2022-10-05T03:38:23.982Z,21
2022-10-05T03:40:54.572Z,20
2022-10-05T03:43:25.759Z,12
2022-10-05T03:45:58.089Z,15
2022-10-05T03:48:29.753Z,12
2022-10-05T03:51:01.402Z,16
2022-10-05T03:53:32.339Z,15
2022-10-05T03:56:03.803Z,16
2022-10-05T03:58:34.937Z,16
2022-10-05T04:01:06.360Z,16
2022-10-05T04:03:36.862Z,16
2022-10-05T04:06:08.444Z,16
2022-10-05T04:08:39.083Z,16
2022-10-05T04:11:10.420Z,16
2022-10-05T04:13:42.169Z,12
2022-10-05T04:16:13.282Z,13
2022-10-05T04:18:44.480Z,20
2022-10-05T04:21:21.380Z,22
2022-10-05T04:23:47.901Z,20
2022-10-05T04:26:19.043Z,19
2022-10-05T04:28:48.804Z,22
2022-10-05T04:31:21.569Z,21
2022-10-05T04:33:52.129Z,26
2022-10-05T04:36:24.874Z,28
2022-10-05T04:38:56.135Z,28
2022-10-05T04:41:28.389Z,24
2022-10-05T04:43:59.584Z,32
2022-10-05T04:46:28.824Z,30
2022-10-05T04:49:01.990Z,30
2022-10-05T04:51:34.900Z,28
2022-10-05T04:54:05.926Z,36
2022-10-05T04:56:36.739Z,27
2022-10-05T04:59:08.648Z,25
2022-10-05T05:01:39.711Z,24
2022-10-05T05:04:11.588Z,30
2022-10-05T05:06:43.485Z,24
2022-10-05T05:09:14.088Z,32
2022-10-05T05:11:49.271Z,20
2022-10-05T05:14:21.360Z,27
2022-10-05T05:16:52.541Z,27
2022-10-05T05:19:23.584Z,27
2022-10-05T05:21:54.727Z,21
2022-10-05T05:24:25.486Z,24
2022-10-05T05:26:56.301Z,24
2022-10-05T05:29:28.468Z,27
2022-10-05T05:31:59.581Z,27
2022-10-05T05:34:30.286Z,24
2022-10-05T05:37:01.388Z,31
2022-10-05T05:39:32.900Z,24
2022-10-05T05:42:04.602Z,25
2022-10-05T05:44:38.690Z,27
2022-10-05T05:47:07.922Z,27
2022-10-05T05:49:38.747Z,31
2022-10-05T05:52:09.698Z,32
2022-10-05T05:54:40.550Z,28
2022-10-05T05:57:09.349Z,24
2022-10-05T05:59:40.147Z,30
2022-10-05T06:02:10.747Z,29
2022-10-05T06:04:41.180Z,32
2022-10-05T06:07:10.211Z,33
2022-10-05T06:09:41.506Z,28
2022-10-05T06:12:13.191Z,32
2022-10-05T06:14:44.587Z,32
2022-10-05T06:17:15.973Z,27
2022-10-05T06:19:49.701Z,28
2022-10-05T06:22:20.812Z,32
2022-10-05T06:24:52.036Z,36
2022-10-05T06:27:24.435Z,33
2022-10-05T06:29:55.384Z,36
2022-10-05T06:32:25.644Z,37
2022-10-05T06:34:57.083Z,37
2022-10-05T06:37:30.453Z,36
2022-10-05T06:40:01.522Z,32
2022-10-05T06:42:31.996Z,36
2022-10-05T06:45:04.433Z,30
2022-10-05T06:47:35.903Z,30
2022-10-05T06:50:07.061Z,32
2022-10-05T06:52:38.193Z,32
2022-10-05T06:55:13.983Z,35
2022-10-05T06:57:40.623Z,34
2022-10-05T07:00:13.586Z,32
2022-10-05T07:02:44.511Z,32
2022-10-05T07:05:17.143Z,36
2022-10-05T07:07:47.545Z,36
2022-10-05T07:10:18.407Z,35
2022-10-05T07:12:49.868Z,39
2022-10-05T07:15:20.862Z,37
2022-10-05T07:17:52.191Z,40
2022-10-05T07:20:23.191Z,36
2022-10-05T07:22:53.369Z,36
2022-10-05T07:25:25.071Z,36
2022-10-05T07:27:56.041Z,40
2022-10-05T07:30:27.128Z,40
2022-10-05T07:32:58.308Z,40
2022-10-05T07:35:27.382Z,40
2022-10-05T07:37:58.301Z,32
2022-10-05T07:40:29.081Z,36
2022-10-05T07:42:59.647Z,36
2022-10-05T07:45:30.394Z,44
2022-10-05T07:48:03.452Z,33
2022-10-05T07:50:33.893Z,36
2022-10-05T07:53:04.916Z,36
2022-10-05T07:55:37.129Z,39
2022-10-05T07:58:07.545Z,32
2022-10-05T08:00:38.032Z,36
2022-10-05T08:03:08.788Z,34
2022-10-05T08:05:39.372Z,32
2022-10-05T08:08:10.307Z,32
2022-10-05T08:10:41.921Z,27
2022-10-05T08:13:13.232Z,34
2022-10-05T08:15:44.251Z,32
2022-10-05T08:18:15.117Z,32
2022-10-05T08:20:46.794Z,24
2022-10-05T08:23:19.787Z,27
2022-10-05T08:25:51.199Z,28
2022-10-05T08:28:22.041Z,26
2022-10-05T08:30:53.202Z,34
2022-10-05T08:33:26.203Z,28
2022-10-05T08:35:58.481Z,32
2022-10-05T08:38:30.305Z,32
2022-10-05T08:41:00.871Z,31
2022-10-05T08:43:35.256Z,28
2022-10-05T08:46:03.467Z,32
2022-10-05T08:48:36.054Z,24
2022-10-05T08:51:06.780Z,28
2022-10-05T08:53:37.562Z,32
2022-10-05T08:56:08.391Z,33
2022-10-05T08:58:39.182Z,32
2022-10-05T09:01:10.053Z,32
2022-10-05T09:03:39.181Z,28
2022-10-05T09:06:09.744Z,27
2022-10-05T09:08:39.925Z,28
2022-10-05T09:11:13.248Z,28
2022-10-05T09:13:44.291Z,23
2022-10-05T09:16:14.754Z,24
2022-10-05T09:18:45.220Z,29
2022-10-05T09:21:17.212Z,24
2022-10-05T09:23:48.056Z,24
2022-10-05T09:26:19.481Z,20
2022-10-05T09:28:52.202Z,22
2022-10-05T09:31:23.490Z,28
2022-10-05T09:33:54.361Z,25
2022-10-05T09:36:24.876Z,17
2022-10-05T09:38:55.600Z,20
2022-10-05T09:41:26.270Z,20
2022-10-05T09:43:59.217Z,20
2022-10-05T09:46:30.792Z,23
2022-10-05T09:49:01.796Z,20
2022-10-05T09:51:32.435Z,27
2022-10-05T09:54:05.034Z,17
2022-10-05T09:56:38.146Z,20
2022-10-05T09:59:08.990Z,24
2022-10-05T10:01:41.613Z,16
2022-10-05T10:04:13.229Z,22
2022-10-05T10:06:43.789Z,18
2022-10-05T10:09:15.056Z,12
2022-10-05T10:11:46.460Z,16
2022-10-05T10:14:14.996Z,12
2022-10-05T10:16:46.609Z,12
2022-10-05T10:19:17.383Z,12
2022-10-05T10:21:48.976Z,16
2022-10-05T10:24:19.649Z,20
2022-10-05T10:26:52.200Z,12
2022-10-05T10:29:23.377Z,12
2022-10-05T10:31:54.189Z,13
2022-10-05T10:34:24.660Z,12
2022-10-05T10:36:55.761Z,12
2022-10-05T10:39:26.604Z,8
2022-10-05T10:41:58.333Z,12
2022-10-05T10:44:28.130Z,12
2022-10-05T10:46:58.885Z,12
2022-10-05T10:49:29.538Z,11
2022-10-05T10:52:00.704Z,11
2022-10-05T10:54:31.230Z,8
2022-10-05T10:57:02.468Z,8
2022-10-05T10:59:33.322Z,12
2022-10-05T11:02:04.845Z,11
2022-10-05T11:04:37.554Z,11
2022-10-05T11:07:08.115Z,12
2022-10-05T11:09:38.951Z,9
2022-10-05T11:12:10.070Z,11
2022-10-05T11:14:41.967Z,8
2022-10-05T11:17:12.206Z,12
2022-10-05T11:19:59.504Z,15
2022-10-05T11:22:14.417Z,12
2022-10-05T11:24:45.033Z,8
2022-10-05T11:27:16.121Z,12
2022-10-05T11:29:46.519Z,8
2022-10-05T11:32:16.757Z,12
2022-10-05T11:34:47.621Z,12
2022-10-05T11:37:20.060Z,12
2022-10-05T11:39:51.387Z,12
2022-10-05T11:42:22.647Z,8
2022-10-05T11:44:53.536Z,8
2022-10-05T11:47:25.139Z,8
2022-10-05T11:49:55.941Z,12
2022-10-05T11:52:27.093Z,10
2022-10-05T11:55:10.214Z,20
2022-10-05T11:57:29.653Z,12
2022-10-05T11:59:58.966Z,13
2022-10-05T12:02:29.847Z,12
2022-10-05T12:05:00.753Z,10
2022-10-05T12:07:31.927Z,8
2022-10-05T12:10:02.925Z,12
2022-10-05T12:12:33.498Z,32
2022-10-05T12:15:04.023Z,15
2022-10-05T12:17:35.419Z,10
2022-10-05T12:20:06.323Z,12
2022-10-05T12:22:38.360Z,12
2022-10-05T12:25:13.014Z,12
2022-10-05T12:27:44.500Z,8
2022-10-05T12:30:15.452Z,8
2022-10-05T12:32:46.679Z,8
2022-10-05T12:35:29.900Z,8
2022-10-05T12:37:50.067Z,8
2022-10-05T12:40:21.143Z,8
2022-10-05T12:42:52.399Z,8
2022-10-05T12:45:28.983Z,8
2022-10-05T12:47:59.589Z,8
2022-10-05T12:50:30.424Z,5
2022-10-05T12:53:01.480Z,8
2022-10-05T12:55:33.563Z,8
2022-10-05T12:58:04.455Z,11
2022-10-05T13:00:35.693Z,12
2022-10-05T13:03:06.705Z,8
2022-10-05T13:05:37.740Z,8
2022-10-05T13:08:09.557Z,8
2022-10-05T13:10:40.387Z,8
2022-10-05T13:13:11.569Z,8
2022-10-05T13:15:42.398Z,10
2022-10-05T13:18:14.354Z,8
2022-10-05T13:20:45.440Z,8
2022-10-05T13:23:16.401Z,11
2022-10-05T13:25:47.883Z,20
2022-10-05T13:28:21.263Z,54
2022-10-05T13:30:52.020Z,42
2022-10-05T13:33:23.450Z,9
2022-10-05T13:35:54.623Z,18
2022-10-05T13:38:25.509Z,12
2022-10-05T13:40:56.488Z,12
2022-10-05T13:43:27.074Z,12
2022-10-05T13:45:58.410Z,20
2022-10-05T13:48:29.681Z,15
2022-10-05T13:51:01.049Z,16
2022-10-05T13:53:32.045Z,12
2022-10-05T13:56:03.019Z,12
2022-10-05T13:58:33.813Z,16
2022-10-05T14:01:04.653Z,16
2022-10-05T14:03:36.398Z,16
2022-10-05T14:06:07.538Z,28
2022-10-05T14:08:39.040Z,20
2022-10-05T14:11:11.662Z,20
2022-10-05T14:13:44.588Z,13
2022-10-05T14:16:18.201Z,20
2022-10-05T14:18:50.258Z,16
2022-10-05T14:21:21.613Z,14
2022-10-05T14:23:51.353Z,16
2022-10-05T14:26:23.411Z,12
2022-10-05T14:28:54.757Z,12
2022-10-05T14:31:26.903Z,12
2022-10-05T14:33:58.705Z,12
2022-10-05T14:36:30.048Z,12
2022-10-05T14:39:02.040Z,12
2022-10-05T14:41:33.156Z,11
2022-10-05T14:44:07.186Z,10
2022-10-05T14:46:40.239Z,11
2022-10-05T14:49:11.558Z,24
2022-10-05T14:51:43.273Z,16
2022-10-05T14:54:15.109Z,12
2022-10-05T14:56:49.147Z,13
2022-10-05T14:59:21.568Z,20
2022-10-05T15:01:52.735Z,39
2022-10-05T15:04:24.285Z,32
2022-10-05T15:06:55.839Z,12
2022-10-05T15:09:25.389Z,12
2022-10-05T15:11:56.950Z,12
2022-10-05T15:14:28.866Z,12
2022-10-05T15:17:00.913Z,12
2022-10-05T15:19:32.483Z,15
2022-10-05T15:22:04.085Z,12
2022-10-05T15:24:38.956Z,16
2022-10-05T15:27:07.353Z,12
2022-10-05T15:29:38.784Z,12
2022-10-05T15:32:09.778Z,12
2022-10-05T15:34:41.238Z,12
2022-10-05T15:37:13.439Z,16
2022-10-05T15:39:45.077Z,12
2022-10-05T15:42:17.162Z,15
2022-10-05T15:44:48.830Z,12
2022-10-05T15:47:21.316Z,18
2022-10-05T15:49:52.906Z,16
2022-10-05T15:52:24.015Z,16
2022-10-05T15:54:56.270Z,12
2022-10-05T15:57:28.146Z,16
2022-10-05T16:00:01.029Z,16
2022-10-05T16:02:31.267Z,16
2022-10-05T16:05:04.876Z,17
2022-10-05T16:07:34.921Z,19
2022-10-05T16:10:06.879Z,19
2022-10-05T16:12:38.109Z,23
2022-10-05T16:15:09.852Z,21
2022-10-05T16:17:41.531Z,20
2022-10-05T16:20:13.403Z,23
2022-10-05T16:22:47.110Z,24
2022-10-05T16:25:17.263Z,24
2022-10-05T16:27:48.369Z,24
2022-10-05T16:30:19.674Z,28
2022-10-05T16:32:52.579Z,20
2022-10-05T16:35:24.023Z,24
2022-10-05T16:37:55.665Z,27
2022-10-05T16:40:27.931Z,25
2022-10-05T16:42:59.056Z,24
2022-10-05T16:45:30.117Z,28
2022-10-05T16:48:02.055Z,31
2022-10-05T16:50:33.128Z,28
2022-10-05T16:53:06.277Z,28
2022-10-05T16:55:37.602Z,28
2022-10-05T16:58:09.235Z,31
2022-10-05T17:00:40.791Z,34
2022-10-05T17:03:12.260Z,36
2022-10-05T17:05:43.625Z,36
2022-10-05T17:08:15.993Z,40
2022-10-05T17:10:47.768Z,40
2022-10-05T17:13:20.044Z,43
2022-10-05T17:15:50.217Z,40
2022-10-05T17:18:21.998Z,40
2022-10-05T17:20:52.387Z,50
2022-10-05T17:23:24.431Z,43
2022-10-05T17:25:56.775Z,48
2022-10-05T17:28:29.596Z,46
2022-10-05T17:31:00.824Z,51
2022-10-05T17:33:33.376Z,48
2022-10-05T17:36:06.003Z,44
2022-10-05T17:38:37.242Z,48
2022-10-05T17:41:09.289Z,45
2022-10-05T17:43:40.803Z,41
2022-10-05T17:46:13.234Z,49
2022-10-05T17:48:45.629Z,44
2022-10-05T17:51:17.117Z,48
2022-10-05T17:53:47.973Z,45
2022-10-05T17:56:20.194Z,41
2022-10-05T17:58:52.265Z,44
2022-10-05T18:01:22.426Z,39
2022-10-05T18:03:55.035Z,44
2022-10-05T18:06:28.473Z,40
2022-10-05T18:09:01.052Z,40
2022-10-05T18:11:32.435Z,40
2022-10-05T18:14:02.228Z,40
2022-10-05T18:16:34.209Z,44
2022-10-05T18:19:05.971Z,47
2022-10-05T18:21:37.434Z,50
2022-10-05T18:24:09.819Z,48
2022-10-05T18:26:40.597Z,50
2022-10-05T18:29:12.794Z,48
2022-10-05T18:31:46.528Z,48
2022-10-05T18:34:19.841Z,40
2022-10-05T18:36:51.305Z,48
2022-10-05T18:39:22.743Z,44
2022-10-05T18:41:57.205Z,45
2022-10-05T18:44:29.430Z,52
2022-10-05T18:47:01.086Z,50
2022-10-05T18:49:32.835Z,58
2022-10-05T18:52:05.913Z,57
2022-10-05T18:54:38.041Z,49
2022-10-05T18:57:09.808Z,55
2022-10-05T18:59:41.425Z,57
2022-10-05T19:02:13.347Z,59
2022-10-05T19:04:45.145Z,56
2022-10-05T19:07:16.478Z,48
2022-10-05T19:09:48.087Z,52
2022-10-05T19:12:19.500Z,50
2022-10-05T19:14:51.490Z,49
2022-10-05T19:17:22.867Z,48
2022-10-05T19:19:54.631Z,49
2022-10-05T19:22:26.366Z,48
2022-10-05T19:25:00.541Z,48
2022-10-05T19:27:32.352Z,49
2022-10-05T19:30:03.942Z,52
2022-10-05T19:32:35.826Z,44
2022-10-05T19:35:09.029Z,50
2022-10-05T19:37:41.096Z,48
2022-10-05T19:40:13.502Z,44
2022-10-05T19:42:45.002Z,52
2022-10-05T19:45:16.753Z,63
2022-10-05T19:47:49.309Z,61
2022-10-05T19:50:22.296Z,52
2022-10-05T19:52:53.029Z,50
2022-10-05T19:55:25.452Z,48
2022-10-05T19:57:58.179Z,49
2022-10-05T20:00:29.994Z,40
2022-10-05T20:03:05.246Z,44
2022-10-05T20:05:37.549Z,44
2022-10-05T20:08:11.390Z,47
2022-10-05T20:10:44.392Z,44
2022-10-05T20:15:57.150Z,43
2022-10-05T20:18:29.420Z,40
2022-10-05T20:21:03.122Z,40
2022-10-05T20:23:36.813Z,40
2022-10-05T20:26:09.400Z,41
2022-10-05T20:28:40.993Z,40
2022-10-05T20:31:13.804Z,44
2022-10-05T20:33:46.567Z,44
2022-10-05T20:36:17.707Z,48
2022-10-05T20:38:51.010Z,40
2022-10-05T20:41:25.753Z,44
2022-10-05T20:43:58.849Z,44
2022-10-05T20:46:32.982Z,42
2022-10-05T20:49:07.884Z,43
2022-10-05T20:51:39.888Z,44
2022-10-05T20:54:14.306Z,44
2022-10-05T20:56:46.037Z,44
2022-10-05T20:59:17.721Z,43
2022-10-05T21:01:49.188Z,44
2022-10-05T21:04:20.815Z,44
2022-10-05T21:06:54.236Z,41
2022-10-05T21:09:25.767Z,47
2022-10-05T21:11:56.951Z,45
2022-10-05T21:14:31.369Z,44
2022-10-05T21:17:05.870Z,40
2022-10-05T21:19:41.562Z,47
2022-10-05T21:22:14.326Z,46
2022-10-05T21:24:46.125Z,44
2022-10-05T21:27:19.424Z,46
2022-10-05T21:29:55.496Z,45
2022-10-05T21:32:28.085Z,50
2022-10-05T21:34:58.447Z,48
2022-10-05T21:37:29.685Z,46
2022-10-05T21:40:01.790Z,44
2022-10-05T21:42:35.057Z,45
2022-10-05T21:45:07.209Z,48
2022-10-05T21:47:41.714Z,48
2022-10-05T21:50:15.598Z,44
2022-10-05T21:52:49.707Z,43
2022-10-05T21:55:23.217Z,48
2022-10-05T21:57:56.651Z,44
2022-10-05T22:00:28.404Z,45
2022-10-05T22:03:02.167Z,48
2022-10-05T22:05:33.211Z,44
2022-10-05T22:08:05.404Z,42
2022-10-05T22:10:36.371Z,45
2022-10-05T22:13:07.445Z,48
2022-10-05T22:15:38.424Z,48
2022-10-05T22:18:12.432Z,48
2022-10-05T22:20:44.263Z,44
2022-10-05T22:23:15.394Z,40
2022-10-05T22:25:46.229Z,44
2022-10-05T22:28:15.579Z,38
2022-10-05T22:30:46.695Z,44
2022-10-05T22:33:19.989Z,36
2022-10-05T22:35:51.827Z,36
2022-10-05T22:38:23.213Z,42
2022-10-05T22:40:54.249Z,40
2022-10-05T22:43:25.497Z,40
2022-10-05T22:46:01.169Z,40
2022-10-05T22:48:30.906Z,42
2022-10-05T22:51:02.910Z,39
2022-10-05T22:53:33.642Z,40
2022-10-05T22:56:05.017Z,36
2022-10-05T22:58:35.823Z,40
2022-10-05T23:01:08.134Z,36
2022-10-05T23:03:38.585Z,36
2022-10-05T23:06:09.646Z,37
2022-10-05T23:08:40.815Z,40
2022-10-05T23:11:12.086Z,40
2022-10-05T23:13:41.753Z,40
2022-10-05T23:16:13.160Z,36
2022-10-05T23:18:43.775Z,38
2022-10-05T23:21:14.596Z,36
2022-10-05T23:23:45.408Z,42
2022-10-05T23:26:17.403Z,36
2022-10-05T23:28:48.575Z,35
2022-10-05T23:31:21.619Z,36
2022-10-05T23:33:53.191Z,34
2022-10-05T23:36:24.237Z,36
2022-10-05T23:38:54.689Z,32
2022-10-05T23:41:25.969Z,36
2022-10-05T23:43:59.459Z,32
2022-10-05T23:46:31.247Z,33
2022-10-05T23:49:02.872Z,35
2022-10-05T23:51:34.473Z,33
2022-10-05T23:54:05.393Z,34
2022-10-05T23:56:36.163Z,36
2022-10-05T23:59:08.002Z,31
